createdAt,value
2022-08-22T00:00:16.312Z,5.88
2022-08-22T00:02:59.616Z,7.20
2022-08-22T00:03:39.937Z,6.28
2022-08-22T00:06:57.474Z,6.10
2022-08-22T00:10:11.110Z,6.13
2022-08-22T00:13:24.419Z,6.77
2022-08-22T00:16:42.606Z,6.40
2022-08-22T00:20:04.119Z,6.20
2022-08-22T00:23:17.816Z,6.35
2022-08-22T00:26:33.845Z,6.95
2022-08-22T00:29:54.348Z,6.33
2022-08-22T00:33:05.056Z,6.32
2022-08-22T00:36:18.059Z,6.25
2022-08-22T00:39:28.526Z,7.43
2022-08-22T00:43:20.101Z,7.60
2022-08-22T00:46:43.343Z,6.90
2022-08-22T00:49:48.800Z,7.90
2022-08-22T00:53:09.257Z,7.78
2022-08-22T00:56:35.266Z,8.25
2022-08-22T00:59:43.928Z,7.82
2022-08-22T01:03:07.635Z,8.77
2022-08-22T01:06:34.498Z,7.68
2022-08-22T01:10:01.232Z,7.75
2022-08-22T01:13:24.190Z,7.40
2022-08-22T01:16:35.264Z,7.55
2022-08-22T01:20:10.832Z,6.83
2022-08-22T01:23:44.749Z,6.43
2022-08-22T01:27:12.837Z,6.82
2022-08-22T01:30:18.733Z,7.47
2022-08-22T01:33:38.571Z,7.85
2022-08-22T01:37:04.496Z,7.67
2022-08-22T01:40:27.158Z,7.70
2022-08-22T01:43:59.095Z,8.15
2022-08-22T01:47:16.727Z,8.90
2022-08-22T01:50:57.585Z,8.43
2022-08-22T01:54:12.186Z,8.73
2022-08-22T01:57:15.187Z,8.10
2022-08-22T02:00:34.618Z,7.93
2022-08-22T02:03:57.833Z,7.13
2022-08-22T02:07:31.873Z,7.18
2022-08-22T02:10:53.900Z,7.87
2022-08-22T02:14:14.047Z,7.35
2022-08-22T02:17:33.035Z,8.23
2022-08-22T02:20:47.565Z,8.05
2022-08-22T02:24:03.151Z,7.95
2022-08-22T02:27:23.851Z,7.60
2022-08-22T02:31:16.709Z,8.10
2022-08-22T02:34:27.823Z,8.57
2022-08-22T02:37:35.660Z,8.32
2022-08-22T02:40:44.422Z,8.48
2022-08-22T02:43:49.622Z,8.70
2022-08-22T02:47:16.508Z,8.57
2022-08-22T02:50:35.834Z,9.10
2022-08-22T02:53:44.562Z,8.75
2022-08-22T02:56:58.929Z,8.55
2022-08-22T03:00:31.845Z,9.30
2022-08-22T03:03:41.386Z,8.70
2022-08-22T03:06:59.910Z,8.10
2022-08-22T03:10:16.179Z,9.02
2022-08-22T03:13:33.615Z,8.77
2022-08-22T03:16:55.230Z,8.20
2022-08-22T03:20:36.206Z,8.27
2022-08-22T03:23:44.089Z,9.18
2022-08-22T03:27:02.689Z,8.85
2022-08-22T03:30:33.218Z,8.70
2022-08-22T03:33:35.375Z,7.80
2022-08-22T03:36:37.765Z,8.27
2022-08-22T03:39:54.779Z,8.57
2022-08-22T03:43:05.696Z,9.15
2022-08-22T03:46:19.888Z,8.40
2022-08-22T03:49:40.084Z,8.13
2022-08-22T03:53:19.484Z,8.45
2022-08-22T03:56:27.369Z,8.52
2022-08-22T03:59:48.111Z,9.35
2022-08-22T04:03:28.747Z,8.90
2022-08-22T04:06:40.760Z,9.07
2022-08-22T04:09:51.032Z,8.80
2022-08-22T04:13:15.550Z,9.10
2022-08-22T04:16:20.857Z,8.93
2022-08-22T04:19:48.391Z,9.45
2022-08-22T04:23:12.094Z,9.47
2022-08-22T04:26:40.885Z,9.18
2022-08-22T04:29:54.965Z,9.07
2022-08-22T04:33:14.424Z,9.40
2022-08-22T04:36:23.253Z,9.98
2022-08-22T04:39:48.310Z,9.90
2022-08-22T04:42:57.132Z,10.77
2022-08-22T04:46:09.231Z,11.90
2022-08-22T04:49:19.766Z,11.15
2022-08-22T04:52:43.674Z,11.68
2022-08-22T04:55:54.713Z,11.50
2022-08-22T04:59:11.685Z,11.77
2022-08-22T05:02:22.389Z,11.27
2022-08-22T05:05:31.487Z,12.70
2022-08-22T05:08:37.624Z,12.57
2022-08-22T05:11:42.505Z,12.50
2022-08-22T05:14:51.735Z,12.30
2022-08-22T05:18:00.480Z,12.82
2022-08-22T05:21:07.534Z,13.10
2022-08-22T05:24:14.991Z,12.32
2022-08-22T05:27:22.711Z,12.83
2022-08-22T05:30:28.546Z,13.13
2022-08-22T05:33:34.279Z,12.57
2022-08-22T05:36:43.412Z,12.82
2022-08-22T05:39:49.117Z,12.75
2022-08-22T05:42:52.599Z,11.80
2022-08-22T05:45:58.499Z,11.75
2022-08-22T05:49:03.124Z,13.15
2022-08-22T05:52:07.097Z,12.88
2022-08-22T05:55:17.307Z,12.32
2022-08-22T05:59:00.166Z,12.93
2022-08-22T06:02:12.783Z,13.18
2022-08-22T06:05:25.294Z,12.90
2022-08-22T06:08:36.209Z,12.20
2022-08-22T06:12:04.257Z,12.73
2022-08-22T06:15:20.823Z,12.00
2022-08-22T06:18:26.790Z,12.77
2022-08-22T06:21:39.220Z,12.68
2022-08-22T06:24:42.299Z,13.27
2022-08-22T06:27:49.154Z,13.20
2022-08-22T06:30:54.807Z,12.43
2022-08-22T06:34:09.467Z,13.02
2022-08-22T06:37:20.265Z,12.77
2022-08-22T06:40:23.070Z,12.70
2022-08-22T06:43:26.065Z,12.55
2022-08-22T06:46:30.807Z,11.70
2022-08-22T06:49:35.553Z,12.30
2022-08-22T06:52:51.094Z,11.45
2022-08-22T06:55:59.331Z,12.18
2022-08-22T06:59:06.292Z,12.48
2022-08-22T07:02:22.175Z,11.87
2022-08-22T07:05:28.389Z,10.98
2022-08-22T07:08:38.904Z,11.77
2022-08-22T07:11:42.400Z,11.10
2022-08-22T07:14:49.639Z,11.13
2022-08-22T07:17:57.719Z,10.97
2022-08-22T07:21:04.857Z,10.93
2022-08-22T07:24:09.010Z,11.25
2022-08-22T07:27:27.943Z,11.48
2022-08-22T07:30:56.253Z,9.82
2022-08-22T07:34:29.585Z,9.60
2022-08-22T07:38:04.389Z,10.32
2022-08-22T07:41:15.420Z,10.68
2022-08-22T07:44:22.782Z,11.27
2022-08-22T07:47:49.960Z,10.73
2022-08-22T07:51:07.550Z,10.63
2022-08-22T07:54:19.408Z,10.02
2022-08-22T07:57:29.423Z,10.27
2022-08-22T08:00:34.440Z,9.18
2022-08-22T08:03:38.935Z,9.30
2022-08-22T08:06:42.607Z,9.27
2022-08-22T08:09:51.769Z,9.10
2022-08-22T08:13:02.408Z,10.30
2022-08-22T08:16:09.345Z,10.23
2022-08-22T08:19:13.481Z,8.82
2022-08-22T08:22:20.166Z,8.30
2022-08-22T08:25:28.913Z,9.32
2022-08-22T08:28:34.273Z,9.23
2022-08-22T08:31:43.117Z,8.40
2022-08-22T08:34:47.239Z,8.40
2022-08-22T08:38:15.620Z,8.27
2022-08-22T08:41:46.346Z,8.23
2022-08-22T08:45:31.811Z,8.18
2022-08-22T08:48:46.223Z,8.70
2022-08-22T08:52:10.422Z,7.80
2022-08-22T08:55:53.893Z,8.07
2022-08-22T08:59:36.193Z,8.23
2022-08-22T09:02:52.465Z,7.97
2022-08-22T09:06:13.075Z,8.30
2022-08-22T09:09:22.716Z,8.05
2022-08-22T09:12:56.110Z,8.10
2022-08-22T09:16:29.601Z,8.25
2022-08-22T09:20:00.736Z,9.13
2022-08-22T09:23:10.024Z,9.43
2022-08-22T09:26:22.853Z,9.32
2022-08-22T09:30:05.057Z,8.83
2022-08-22T09:33:14.786Z,9.40
2022-08-22T09:36:41.135Z,9.13
2022-08-22T09:40:10.481Z,9.80
2022-08-22T09:43:29.500Z,10.38
2022-08-22T09:46:57.614Z,9.40
2022-08-22T09:50:24.753Z,9.50
2022-08-22T09:53:56.369Z,9.45
2022-08-22T09:57:23.196Z,10.20
2022-08-22T10:00:55.290Z,9.50
2022-08-22T10:04:40.602Z,9.40
2022-08-22T10:08:05.903Z,9.30
2022-08-22T10:11:32.732Z,9.43
2022-08-22T10:15:03.027Z,8.73
2022-08-22T10:18:29.677Z,9.40
2022-08-22T10:21:46.305Z,9.33
2022-08-22T10:24:58.576Z,9.73
2022-08-22T10:28:10.610Z,8.68
2022-08-22T10:31:34.625Z,8.50
2022-08-22T10:34:50.656Z,8.70
2022-08-22T10:38:25.013Z,8.10
2022-08-22T10:41:39.567Z,9.25
2022-08-22T10:45:15.436Z,8.63
2022-08-22T10:48:35.670Z,8.52
2022-08-22T10:51:47.890Z,8.85
2022-08-22T10:55:09.918Z,7.63
2022-08-22T10:58:16.483Z,7.72
2022-08-22T11:01:37.439Z,8.00
2022-08-22T11:05:09.797Z,7.13
2022-08-22T11:08:21.819Z,7.28
2022-08-22T11:11:33.067Z,6.73
2022-08-22T11:15:28.450Z,7.18
2022-08-22T11:19:15.552Z,7.50
2022-08-22T11:22:36.199Z,6.88
2022-08-22T11:25:41.280Z,7.40
2022-08-22T11:29:13.333Z,7.10
2022-08-22T11:32:49.652Z,6.78
2022-08-22T11:36:26.245Z,6.85
2022-08-22T11:40:07.601Z,6.85
2022-08-22T11:43:18.420Z,6.60
2022-08-22T11:46:23.487Z,6.90
2022-08-22T11:49:27.630Z,6.80
2022-08-22T11:52:54.841Z,6.95
2022-08-22T11:55:59.649Z,6.43
2022-08-22T11:59:22.559Z,7.95
2022-08-22T12:02:31.149Z,6.63
2022-08-22T12:05:42.936Z,7.38
2022-08-22T12:09:12.852Z,7.75
2022-08-22T12:12:42.380Z,7.50
2022-08-22T12:16:15.258Z,7.28
2022-08-22T12:19:17.176Z,6.73
2022-08-22T12:22:50.013Z,8.05
2022-08-22T12:26:13.954Z,8.23
2022-08-22T12:29:54.152Z,8.05
2022-08-22T12:33:37.322Z,8.15
2022-08-22T12:36:59.415Z,9.53
2022-08-22T12:40:32.374Z,9.57
2022-08-22T12:44:17.321Z,8.98
2022-08-22T12:47:50.640Z,9.30
2022-08-22T12:51:18.625Z,8.55
2022-08-22T12:54:59.803Z,8.87
2022-08-22T12:58:17.715Z,8.93
2022-08-22T13:01:20.591Z,8.45
2022-08-22T13:04:34.297Z,8.90
2022-08-22T13:07:38.452Z,8.07
2022-08-22T13:10:51.156Z,8.27
2022-08-22T13:14:00.450Z,8.02
2022-08-22T13:17:23.603Z,8.13
2022-08-22T13:20:41.399Z,8.57
2022-08-22T13:23:50.787Z,8.93
2022-08-22T13:26:58.812Z,8.70
2022-08-22T13:30:13.379Z,8.90
2022-08-22T13:33:23.595Z,8.88
2022-08-22T13:36:26.903Z,8.30
2022-08-22T13:39:34.155Z,8.30
2022-08-22T13:42:45.547Z,8.77
2022-08-22T13:45:56.240Z,8.88
2022-08-22T13:49:01.741Z,8.27
2022-08-22T13:52:29.091Z,8.10
2022-08-22T13:55:56.891Z,8.15
2022-08-22T13:59:05.952Z,8.33
2022-08-22T14:02:18.074Z,8.82
2022-08-22T14:05:41.108Z,7.68
2022-08-22T14:08:45.861Z,8.25
2022-08-22T14:11:58.716Z,8.20
2022-08-22T14:15:05.180Z,8.10
2022-08-22T14:18:13.568Z,6.90
2022-08-22T14:21:16.392Z,7.38
2022-08-22T14:24:48.923Z,7.90
2022-08-22T14:28:06.369Z,8.20
2022-08-22T14:31:14.371Z,8.40
2022-08-22T14:34:17.052Z,7.85
2022-08-22T14:37:27.890Z,7.95
2022-08-22T14:40:34.000Z,9.40
2022-08-22T14:43:49.630Z,9.65
2022-08-22T14:47:00.826Z,8.90
2022-08-22T14:50:11.173Z,8.35
2022-08-22T14:53:20.017Z,8.45
2022-08-22T14:56:29.927Z,8.25
2022-08-22T14:59:44.235Z,8.60
2022-08-22T15:02:46.582Z,8.73
2022-08-22T15:05:55.068Z,8.82
2022-08-22T15:08:57.910Z,8.98
2022-08-22T15:12:03.747Z,8.77
2022-08-22T15:15:27.301Z,9.32
2022-08-22T15:18:29.364Z,9.23
2022-08-22T15:21:33.699Z,9.18
2022-08-22T15:24:49.547Z,8.35
2022-08-22T15:28:20.919Z,10.23
2022-08-22T15:31:23.758Z,8.63
2022-08-22T15:34:43.715Z,7.83
2022-08-22T15:37:57.485Z,7.97
2022-08-22T15:41:36.607Z,9.60
2022-08-22T15:44:44.173Z,8.35
2022-08-22T15:47:53.088Z,8.98
2022-08-22T15:51:11.146Z,8.77
2022-08-22T15:54:24.873Z,8.60
2022-08-22T15:57:40.312Z,8.95
2022-08-22T16:00:45.664Z,8.65
2022-08-22T16:03:56.379Z,8.90
2022-08-22T16:07:01.294Z,9.60
2022-08-22T16:10:11.121Z,8.77
2022-08-22T16:13:31.235Z,9.50
2022-08-22T16:16:45.330Z,9.60
2022-08-22T16:19:47.429Z,9.63
2022-08-22T16:23:12.862Z,9.50
2022-08-22T16:26:36.845Z,8.98
2022-08-22T16:29:41.894Z,9.18
2022-08-22T16:32:53.333Z,8.90
2022-08-22T16:36:15.160Z,9.18
2022-08-22T16:39:22.901Z,7.73
2022-08-22T16:42:35.715Z,9.40
2022-08-22T16:45:48.617Z,9.38
2022-08-22T16:49:01.240Z,8.73
2022-08-22T16:52:22.195Z,9.52
2022-08-22T16:55:30.159Z,8.37
2022-08-22T16:59:03.326Z,8.85
2022-08-22T17:02:42.487Z,9.52
2022-08-22T17:06:01.802Z,8.80
2022-08-22T17:09:16.956Z,9.15
2022-08-22T17:12:49.074Z,9.03
2022-08-22T17:15:54.114Z,9.30
2022-08-22T17:19:19.019Z,9.60
2022-08-22T17:22:49.618Z,9.73
2022-08-22T17:26:09.737Z,9.65
2022-08-22T17:29:39.493Z,9.50
2022-08-22T17:33:09.438Z,9.27
2022-08-22T17:36:36.666Z,8.98
2022-08-22T17:39:49.950Z,10.30
2022-08-22T17:43:21.776Z,9.38
2022-08-22T17:46:44.756Z,8.97
2022-08-22T17:49:59.356Z,8.43
2022-08-22T17:53:11.126Z,7.15
2022-08-22T17:56:27.648Z,7.00
2022-08-22T17:59:37.324Z,7.38
2022-08-22T18:02:50.825Z,5.30
2022-08-22T18:06:22.784Z,5.70
2022-08-22T18:09:37.691Z,5.32
2022-08-22T18:12:53.670Z,3.75
2022-08-22T18:16:02.057Z,3.65
2022-08-22T18:19:10.137Z,3.30
2022-08-22T18:22:22.022Z,2.70
2022-08-22T18:25:36.427Z,3.10
2022-08-22T18:28:53.221Z,2.70
2022-08-22T18:32:08.956Z,2.85
2022-08-22T18:35:31.419Z,3.10
2022-08-22T18:38:49.957Z,2.90
2022-08-22T18:42:02.388Z,2.80
2022-08-22T18:45:06.168Z,3.03
2022-08-22T18:48:08.254Z,3.10
2022-08-22T18:51:30.555Z,2.80
2022-08-22T18:55:05.762Z,3.95
2022-08-22T18:58:07.784Z,2.42
2022-08-22T19:01:31.093Z,2.30
2022-08-22T19:04:56.185Z,2.22
2022-08-22T19:08:16.704Z,2.80
2022-08-22T19:11:46.741Z,3.63
2022-08-22T19:15:04.671Z,4.28
2022-08-22T19:18:36.346Z,3.80
2022-08-22T19:21:56.986Z,3.88
2022-08-22T19:25:05.787Z,2.90
2022-08-22T19:28:11.339Z,3.40
2022-08-22T19:31:35.402Z,2.90
2022-08-22T19:34:47.068Z,3.00
2022-08-22T19:37:54.792Z,3.33
2022-08-22T19:40:58.395Z,2.73
2022-08-22T19:44:00.988Z,3.17
2022-08-22T19:47:18.214Z,3.40
2022-08-22T19:50:21.279Z,3.03
2022-08-22T19:54:00.228Z,3.50
2022-08-22T19:57:19.825Z,3.17
2022-08-22T20:00:43.175Z,3.67
2022-08-22T20:03:54.570Z,3.30
2022-08-22T20:07:22.684Z,3.17
2022-08-22T20:10:48.678Z,3.47
2022-08-22T20:13:51.267Z,3.47
2022-08-22T20:16:59.039Z,3.40
2022-08-22T20:20:24.125Z,3.40
2022-08-22T20:23:37.514Z,3.17
2022-08-22T20:26:57.523Z,3.10
2022-08-22T20:30:07.586Z,3.37
2022-08-22T20:33:12.735Z,3.10
2022-08-22T20:36:27.641Z,3.15
2022-08-22T20:40:43.927Z,3.00
2022-08-22T20:43:51.532Z,3.20
2022-08-22T20:46:58.182Z,3.10
2022-08-22T20:50:03.292Z,2.78
2022-08-22T20:53:12.728Z,2.78
2022-08-22T20:56:14.716Z,2.70
2022-08-22T20:59:36.005Z,2.80
2022-08-22T21:02:45.620Z,2.97
2022-08-22T21:05:47.752Z,2.53
2022-08-22T21:09:12.542Z,2.42
2022-08-22T21:12:15.036Z,2.55
2022-08-22T21:15:30.111Z,2.42
2022-08-22T21:18:38.804Z,2.40
2022-08-22T21:21:40.795Z,2.97
2022-08-22T21:24:42.891Z,4.18
2022-08-22T21:27:48.741Z,4.13
2022-08-22T21:30:50.747Z,5.25
2022-08-22T21:33:55.408Z,4.97
2022-08-22T21:37:08.585Z,6.25
2022-08-22T21:40:15.156Z,5.82
2022-08-22T21:43:37.622Z,6.85
2022-08-22T21:46:39.660Z,7.35
2022-08-22T21:50:13.490Z,6.87
2022-08-22T21:53:30.381Z,8.07
2022-08-22T21:56:32.292Z,9.13
2022-08-22T21:59:51.934Z,9.18
2022-08-22T22:03:02.854Z,10.35
2022-08-22T22:06:06.715Z,10.30
2022-08-22T22:09:12.043Z,11.20
2022-08-22T22:12:17.072Z,11.23
2022-08-22T22:15:22.884Z,10.52
2022-08-22T22:18:31.253Z,11.23
2022-08-22T22:21:33.240Z,10.97
2022-08-22T22:24:35.226Z,10.85
2022-08-22T22:27:37.477Z,11.40
2022-08-22T22:30:40.109Z,11.95
2022-08-22T22:33:43.245Z,12.73
2022-08-22T22:36:45.572Z,11.60
2022-08-22T22:39:47.641Z,11.93
2022-08-22T22:42:50.155Z,11.68
2022-08-22T22:45:52.254Z,12.68
2022-08-22T22:48:55.603Z,12.77
2022-08-22T22:51:58.998Z,12.13
2022-08-22T22:55:01.337Z,12.38
2022-08-22T22:58:04.767Z,13.00
2022-08-22T23:01:22.733Z,12.25
2022-08-22T23:04:25.011Z,12.65
2022-08-22T23:07:27.718Z,12.70
2022-08-22T23:10:31.435Z,12.48
2022-08-22T23:13:35.254Z,12.48
2022-08-22T23:16:41.687Z,13.65
2022-08-22T23:19:44.170Z,13.57
2022-08-22T23:22:50.093Z,13.20
2022-08-22T23:25:52.402Z,12.45
2022-08-22T23:28:54.683Z,12.52
2022-08-22T23:32:00.078Z,12.73
2022-08-22T23:35:01.989Z,12.27
2022-08-22T23:38:04.111Z,12.43
2022-08-22T23:41:09.897Z,13.10
2022-08-22T23:44:14.337Z,12.68
2022-08-22T23:47:16.602Z,12.65
2022-08-22T23:50:18.659Z,12.27
2022-08-22T23:53:20.559Z,12.97
2022-08-22T23:56:27.348Z,11.82
2022-08-22T23:59:35.857Z,12.38
